sensor_id;sensor_type;location;lat;lon;timestamp;P1;durP1;ratioP1;P2;durP2;ratioP2
803;SDS011;25687;49.976;8.240;2022-11-15T00:02:04;17.30;;;14.43;;
803;SDS011;25687;49.976;8.240;2022-11-15T00:04:29;18.43;;;14.60;;
803;SDS011;25687;49.976;8.240;2022-11-15T00:06:55;16.30;;;14.03;;
803;SDS011;25687;49.976;8.240;2022-11-15T00:09:20;16.57;;;14.70;;
803;SDS011;25687;49.976;8.240;2022-11-15T00:11:45;18.97;;;15.80;;
803;SDS011;25687;49.976;8.240;2022-11-15T00:14:10;19.43;;;16.47;;
803;SDS011;25687;49.976;8.240;2022-11-15T00:16:36;16.87;;;15.10;;
803;SDS011;25687;49.976;8.240;2022-11-15T00:19:01;19.00;;;16.20;;
803;SDS011;25687;49.976;8.240;2022-11-15T00:21:27;16.80;;;14.00;;
803;SDS011;25687;49.976;8.240;2022-11-15T00:23:52;21.47;;;16.10;;
803;SDS011;25687;49.976;8.240;2022-11-15T00:26:17;18.60;;;15.33;;
803;SDS011;25687;49.976;8.240;2022-11-15T00:28:43;18.40;;;15.03;;
803;SDS011;25687;49.976;8.240;2022-11-15T00:31:09;19.07;;;15.27;;
803;SDS011;25687;49.976;8.240;2022-11-15T00:33:37;19.67;;;15.70;;
803;SDS011;25687;49.976;8.240;2022-11-15T00:36:02;19.33;;;15.20;;
803;SDS011;25687;49.976;8.240;2022-11-15T00:38:30;20.83;;;15.97;;
803;SDS011;25687;49.976;8.240;2022-11-15T00:41:01;17.23;;;14.70;;
803;SDS011;25687;49.976;8.240;2022-11-15T00:43:28;20.13;;;14.33;;
803;SDS011;25687;49.976;8.240;2022-11-15T00:45:53;16.80;;;14.77;;
803;SDS011;25687;49.976;8.240;2022-11-15T00:48:19;17.27;;;14.53;;
803;SDS011;25687;49.976;8.240;2022-11-15T00:50:44;18.87;;;15.40;;
803;SDS011;25687;49.976;8.240;2022-11-15T00:53:10;18.23;;;14.50;;
803;SDS011;25687;49.976;8.240;2022-11-15T00:55:35;17.53;;;13.57;;
803;SDS011;25687;49.976;8.240;2022-11-15T00:58:00;18.10;;;14.97;;
803;SDS011;25687;49.976;8.240;2022-11-15T01:00:25;15.67;;;13.97;;
803;SDS011;25687;49.976;8.240;2022-11-15T01:02:51;14.83;;;13.23;;
803;SDS011;25687;49.976;8.240;2022-11-15T01:05:16;15.40;;;12.63;;
803;SDS011;25687;49.976;8.240;2022-11-15T01:07:42;14.57;;;13.13;;
803;SDS011;25687;49.976;8.240;2022-11-15T01:10:07;16.07;;;12.73;;
803;SDS011;25687;49.976;8.240;2022-11-15T01:12:33;16.40;;;12.17;;
803;SDS011;25687;49.976;8.240;2022-11-15T01:14:58;15.27;;;13.13;;
803;SDS011;25687;49.976;8.240;2022-11-15T01:17:23;14.97;;;13.23;;
803;SDS011;25687;49.976;8.240;2022-11-15T01:19:49;15.87;;;14.17;;
803;SDS011;25687;49.976;8.240;2022-11-15T01:22:14;17.20;;;13.60;;
803;SDS011;25687;49.976;8.240;2022-11-15T01:24:40;15.77;;;14.03;;
803;SDS011;25687;49.976;8.240;2022-11-15T01:27:05;18.20;;;13.10;;
803;SDS011;25687;49.976;8.240;2022-11-15T01:29:31;15.13;;;13.67;;
803;SDS011;25687;49.976;8.240;2022-11-15T01:31:56;16.97;;;13.13;;
803;SDS011;25687;49.976;8.240;2022-11-15T01:34:22;16.27;;;13.20;;
803;SDS011;25687;49.976;8.240;2022-11-15T01:36:47;14.93;;;13.33;;
803;SDS011;25687;49.976;8.240;2022-11-15T01:39:12;15.47;;;13.80;;
803;SDS011;25687;49.976;8.240;2022-11-15T01:41:37;16.00;;;12.97;;
803;SDS011;25687;49.976;8.240;2022-11-15T01:46:59;15.60;;;13.10;;
803;SDS011;25687;49.976;8.240;2022-11-15T01:49:27;14.73;;;13.23;;
803;SDS011;25687;49.976;8.240;2022-11-15T01:51:57;17.87;;;13.03;;
803;SDS011;25687;49.976;8.240;2022-11-15T01:54:23;15.77;;;13.57;;
803;SDS011;25687;49.976;8.240;2022-11-15T01:56:51;15.47;;;13.80;;
803;SDS011;25687;49.976;8.240;2022-11-15T01:59:20;14.63;;;13.17;;
803;SDS011;25687;49.976;8.240;2022-11-15T02:01:46;15.23;;;13.33;;
803;SDS011;25687;49.976;8.240;2022-11-15T02:04:34;17.00;;;13.93;;
803;SDS011;25687;49.976;8.240;2022-11-15T02:07:01;15.90;;;14.00;;
803;SDS011;25687;49.976;8.240;2022-11-15T02:09:29;17.73;;;14.43;;
803;SDS011;25687;49.976;8.240;2022-11-15T02:11:54;18.13;;;15.23;;
803;SDS011;25687;49.976;8.240;2022-11-15T02:14:21;17.60;;;14.77;;
803;SDS011;25687;49.976;8.240;2022-11-15T02:16:49;20.03;;;14.97;;
803;SDS011;25687;49.976;8.240;2022-11-15T02:22:36;14.97;;;13.43;;
803;SDS011;25687;49.976;8.240;2022-11-15T02:33:54;21.77;;;14.83;;
803;SDS011;25687;49.976;8.240;2022-11-15T02:36:34;16.20;;;14.47;;
803;SDS011;25687;49.976;8.240;2022-11-15T02:42:22;19.27;;;14.37;;
803;SDS011;25687;49.976;8.240;2022-11-15T02:45:30;14.63;;;13.13;;
803;SDS011;25687;49.976;8.240;2022-11-15T02:47:59;18.03;;;15.03;;
803;SDS011;25687;49.976;8.240;2022-11-15T02:50:29;16.70;;;14.13;;
803;SDS011;25687;49.976;8.240;2022-11-15T02:52:57;17.10;;;14.30;;
803;SDS011;25687;49.976;8.240;2022-11-15T02:55:32;15.67;;;13.87;;
803;SDS011;25687;49.976;8.240;2022-11-15T03:00:54;17.47;;;13.27;;
803;SDS011;25687;49.976;8.240;2022-11-15T03:08:51;18.07;;;14.13;;
803;SDS011;25687;49.976;8.240;2022-11-15T03:11:28;16.57;;;13.63;;
803;SDS011;25687;49.976;8.240;2022-11-15T03:13:58;13.77;;;12.43;;
803;SDS011;25687;49.976;8.240;2022-11-15T03:19:04;17.17;;;13.37;;
803;SDS011;25687;49.976;8.240;2022-11-15T03:21:37;15.27;;;13.67;;
803;SDS011;25687;49.976;8.240;2022-11-15T03:24:05;14.83;;;13.20;;
803;SDS011;25687;49.976;8.240;2022-11-15T03:26:32;15.90;;;13.80;;
803;SDS011;25687;49.976;8.240;2022-11-15T03:29:07;15.20;;;12.73;;
803;SDS011;25687;49.976;8.240;2022-11-15T03:31:39;18.90;;;14.83;;
803;SDS011;25687;49.976;8.240;2022-11-15T03:34:35;17.13;;;12.70;;
803;SDS011;25687;49.976;8.240;2022-11-15T03:37:01;14.30;;;12.67;;
803;SDS011;25687;49.976;8.240;2022-11-15T03:39:27;16.13;;;13.37;;
803;SDS011;25687;49.976;8.240;2022-11-15T03:42:01;13.63;;;12.33;;
803;SDS011;25687;49.976;8.240;2022-11-15T03:44:36;15.17;;;13.20;;
803;SDS011;25687;49.976;8.240;2022-11-15T03:49:53;14.63;;;12.70;;
803;SDS011;25687;49.976;8.240;2022-11-15T03:52:24;15.67;;;13.67;;
803;SDS011;25687;49.976;8.240;2022-11-15T03:54:54;16.70;;;14.80;;
803;SDS011;25687;49.976;8.240;2022-11-15T03:57:20;17.87;;;13.53;;
803;SDS011;25687;49.976;8.240;2022-11-15T03:59:46;13.80;;;12.40;;
803;SDS011;25687;49.976;8.240;2022-11-15T04:02:13;15.00;;;12.10;;
803;SDS011;25687;49.976;8.240;2022-11-15T04:04:38;16.80;;;13.07;;
803;SDS011;25687;49.976;8.240;2022-11-15T04:07:04;14.20;;;12.27;;
803;SDS011;25687;49.976;8.240;2022-11-15T04:09:29;13.10;;;11.73;;
803;SDS011;25687;49.976;8.240;2022-11-15T04:11:54;13.93;;;12.27;;
803;SDS011;25687;49.976;8.240;2022-11-15T04:14:20;14.10;;;10.73;;
803;SDS011;25687;49.976;8.240;2022-11-15T04:16:45;13.00;;;10.10;;
803;SDS011;25687;49.976;8.240;2022-11-15T04:19:10;13.13;;;11.23;;
803;SDS011;25687;49.976;8.240;2022-11-15T04:21:54;12.03;;;10.83;;
803;SDS011;25687;49.976;8.240;2022-11-15T04:24:38;15.63;;;10.47;;
803;SDS011;25687;49.976;8.240;2022-11-15T04:27:03;14.53;;;11.37;;
803;SDS011;25687;49.976;8.240;2022-11-15T04:29:28;12.70;;;11.50;;
803;SDS011;25687;49.976;8.240;2022-11-15T04:32:00;12.90;;;11.50;;
803;SDS011;25687;49.976;8.240;2022-11-15T04:34:27;14.43;;;12.50;;
803;SDS011;25687;49.976;8.240;2022-11-15T04:36:52;14.87;;;11.20;;
803;SDS011;25687;49.976;8.240;2022-11-15T04:39:36;11.97;;;10.73;;
803;SDS011;25687;49.976;8.240;2022-11-15T04:42:02;12.10;;;10.80;;
803;SDS011;25687;49.976;8.240;2022-11-15T04:44:27;11.30;;;10.20;;
803;SDS011;25687;49.976;8.240;2022-11-15T04:46:52;13.33;;;10.00;;
803;SDS011;25687;49.976;8.240;2022-11-15T04:49:18;11.63;;;9.30;;
803;SDS011;25687;49.976;8.240;2022-11-15T04:51:43;11.60;;;9.87;;
803;SDS011;25687;49.976;8.240;2022-11-15T04:54:09;11.17;;;9.17;;
803;SDS011;25687;49.976;8.240;2022-11-15T04:56:34;12.47;;;10.13;;
803;SDS011;25687;49.976;8.240;2022-11-15T04:58:59;11.33;;;10.20;;
803;SDS011;25687;49.976;8.240;2022-11-15T05:01:25;10.57;;;9.57;;
803;SDS011;25687;49.976;8.240;2022-11-15T05:03:50;11.57;;;10.10;;
803;SDS011;25687;49.976;8.240;2022-11-15T05:06:34;11.10;;;9.70;;
803;SDS011;25687;49.976;8.240;2022-11-15T05:08:59;12.27;;;10.63;;
803;SDS011;25687;49.976;8.240;2022-11-15T05:11:25;11.17;;;9.93;;
803;SDS011;25687;49.976;8.240;2022-11-15T05:13:51;11.37;;;9.67;;
803;SDS011;25687;49.976;8.240;2022-11-15T05:16:16;12.00;;;10.00;;
803;SDS011;25687;49.976;8.240;2022-11-15T05:18:42;10.83;;;9.70;;
803;SDS011;25687;49.976;8.240;2022-11-15T05:21:09;11.97;;;9.67;;
803;SDS011;25687;49.976;8.240;2022-11-15T05:23:39;10.47;;;9.37;;
803;SDS011;25687;49.976;8.240;2022-11-15T05:26:05;11.43;;;9.67;;
803;SDS011;25687;49.976;8.240;2022-11-15T05:28:32;10.50;;;9.40;;
803;SDS011;25687;49.976;8.240;2022-11-15T05:31:02;10.77;;;8.83;;
803;SDS011;25687;49.976;8.240;2022-11-15T05:33:27;11.63;;;9.17;;
803;SDS011;25687;49.976;8.240;2022-11-15T05:35:57;11.57;;;9.23;;
803;SDS011;25687;49.976;8.240;2022-11-15T05:38:27;11.50;;;9.17;;
803;SDS011;25687;49.976;8.240;2022-11-15T05:40:53;8.67;;;7.87;;
803;SDS011;25687;49.976;8.240;2022-11-15T05:43:19;10.60;;;7.90;;
803;SDS011;25687;49.976;8.240;2022-11-15T05:45:44;8.27;;;7.50;;
803;SDS011;25687;49.976;8.240;2022-11-15T05:48:10;9.20;;;7.50;;
803;SDS011;25687;49.976;8.240;2022-11-15T05:50:36;11.70;;;8.70;;
803;SDS011;25687;49.976;8.240;2022-11-15T05:53:06;8.93;;;7.87;;
803;SDS011;25687;49.976;8.240;2022-11-15T05:55:32;9.83;;;7.93;;
803;SDS011;25687;49.976;8.240;2022-11-15T05:57:57;8.87;;;7.90;;
803;SDS011;25687;49.976;8.240;2022-11-15T06:00:23;15.77;;;8.77;;
803;SDS011;25687;49.976;8.240;2022-11-15T06:02:48;10.30;;;8.30;;
803;SDS011;25687;49.976;8.240;2022-11-15T06:05:13;10.57;;;9.47;;
803;SDS011;25687;49.976;8.240;2022-11-15T06:07:39;10.43;;;9.30;;
803;SDS011;25687;49.976;8.240;2022-11-15T06:10:04;12.90;;;8.43;;
803;SDS011;25687;49.976;8.240;2022-11-15T06:12:30;12.10;;;8.63;;
803;SDS011;25687;49.976;8.240;2022-11-15T06:14:55;10.30;;;8.40;;
803;SDS011;25687;49.976;8.240;2022-11-15T06:17:21;8.73;;;7.93;;
803;SDS011;25687;49.976;8.240;2022-11-15T06:19:46;9.00;;;8.07;;
803;SDS011;25687;49.976;8.240;2022-11-15T06:22:11;9.80;;;8.60;;
803;SDS011;25687;49.976;8.240;2022-11-15T06:24:37;9.83;;;8.57;;
803;SDS011;25687;49.976;8.240;2022-11-15T06:27:02;10.80;;;8.40;;
803;SDS011;25687;49.976;8.240;2022-11-15T06:29:27;9.87;;;8.87;;
803;SDS011;25687;49.976;8.240;2022-11-15T06:31:52;9.73;;;8.73;;
803;SDS011;25687;49.976;8.240;2022-11-15T06:34:18;12.77;;;8.70;;
803;SDS011;25687;49.976;8.240;2022-11-15T06:36:43;15.60;;;9.57;;
803;SDS011;25687;49.976;8.240;2022-11-15T06:39:09;18.67;;;9.47;;
803;SDS011;25687;49.976;8.240;2022-11-15T06:41:34;17.30;;;10.27;;
803;SDS011;25687;49.976;8.240;2022-11-15T06:44:00;14.90;;;10.80;;
803;SDS011;25687;49.976;8.240;2022-11-15T06:46:26;15.83;;;10.80;;
803;SDS011;25687;49.976;8.240;2022-11-15T06:48:52;15.97;;;11.27;;
803;SDS011;25687;49.976;8.240;2022-11-15T06:51:18;14.00;;;9.37;;
803;SDS011;25687;49.976;8.240;2022-11-15T06:53:44;17.00;;;10.20;;
803;SDS011;25687;49.976;8.240;2022-11-15T06:56:09;17.60;;;10.30;;
803;SDS011;25687;49.976;8.240;2022-11-15T06:58:35;12.43;;;11.17;;
803;SDS011;25687;49.976;8.240;2022-11-15T07:01:05;13.37;;;10.27;;
803;SDS011;25687;49.976;8.240;2022-11-15T07:03:34;12.63;;;10.37;;
803;SDS011;25687;49.976;8.240;2022-11-15T07:06:00;15.00;;;10.97;;
803;SDS011;25687;49.976;8.240;2022-11-15T07:08:26;15.67;;;10.27;;
803;SDS011;25687;49.976;8.240;2022-11-15T07:10:57;14.33;;;10.43;;
803;SDS011;25687;49.976;8.240;2022-11-15T07:13:25;11.53;;;9.97;;
803;SDS011;25687;49.976;8.240;2022-11-15T07:15:51;9.57;;;8.57;;
803;SDS011;25687;49.976;8.240;2022-11-15T07:18:16;12.57;;;9.33;;
803;SDS011;25687;49.976;8.240;2022-11-15T07:20:44;12.47;;;9.93;;
803;SDS011;25687;49.976;8.240;2022-11-15T07:23:10;14.47;;;9.53;;
803;SDS011;25687;49.976;8.240;2022-11-15T07:25:35;12.83;;;9.93;;
803;SDS011;25687;49.976;8.240;2022-11-15T07:28:00;19.37;;;9.53;;
803;SDS011;25687;49.976;8.240;2022-11-15T07:30:26;14.77;;;9.33;;
803;SDS011;25687;49.976;8.240;2022-11-15T07:32:52;9.63;;;8.73;;
803;SDS011;25687;49.976;8.240;2022-11-15T07:35:22;10.90;;;9.53;;
803;SDS011;25687;49.976;8.240;2022-11-15T07:37:57;11.53;;;10.20;;
803;SDS011;25687;49.976;8.240;2022-11-15T07:40:25;13.63;;;9.70;;
803;SDS011;25687;49.976;8.240;2022-11-15T07:42:51;15.53;;;9.60;;
803;SDS011;25687;49.976;8.240;2022-11-15T07:45:20;15.50;;;11.50;;
803;SDS011;25687;49.976;8.240;2022-11-15T07:47:48;13.87;;;10.87;;
803;SDS011;25687;49.976;8.240;2022-11-15T07:50:14;12.07;;;10.37;;
803;SDS011;25687;49.976;8.240;2022-11-15T07:52:40;15.70;;;10.93;;
803;SDS011;25687;49.976;8.240;2022-11-15T07:55:06;11.10;;;9.67;;
803;SDS011;25687;49.976;8.240;2022-11-15T07:57:32;12.23;;;9.93;;
803;SDS011;25687;49.976;8.240;2022-11-15T07:59:57;13.50;;;10.27;;
803;SDS011;25687;49.976;8.240;2022-11-15T08:02:22;10.43;;;8.93;;
803;SDS011;25687;49.976;8.240;2022-11-15T08:04:47;11.93;;;9.27;;
803;SDS011;25687;49.976;8.240;2022-11-15T08:07:13;10.20;;;9.10;;
803;SDS011;25687;49.976;8.240;2022-11-15T08:09:38;11.83;;;9.87;;
803;SDS011;25687;49.976;8.240;2022-11-15T08:12:03;14.10;;;10.33;;
803;SDS011;25687;49.976;8.240;2022-11-15T08:14:29;11.53;;;9.27;;
803;SDS011;25687;49.976;8.240;2022-11-15T08:16:54;11.83;;;9.33;;
803;SDS011;25687;49.976;8.240;2022-11-15T08:19:20;11.07;;;9.40;;
803;SDS011;25687;49.976;8.240;2022-11-15T08:21:45;12.23;;;9.57;;
803;SDS011;25687;49.976;8.240;2022-11-15T08:24:11;11.23;;;8.83;;
803;SDS011;25687;49.976;8.240;2022-11-15T08:26:39;11.87;;;9.60;;
803;SDS011;25687;49.976;8.240;2022-11-15T08:29:05;16.23;;;9.83;;
803;SDS011;25687;49.976;8.240;2022-11-15T08:31:31;13.63;;;10.07;;
803;SDS011;25687;49.976;8.240;2022-11-15T08:33:56;14.93;;;8.97;;
803;SDS011;25687;49.976;8.240;2022-11-15T08:36:21;10.83;;;9.63;;
803;SDS011;25687;49.976;8.240;2022-11-15T08:38:47;15.43;;;10.00;;
803;SDS011;25687;49.976;8.240;2022-11-15T08:41:25;16.67;;;10.27;;
803;SDS011;25687;49.976;8.240;2022-11-15T08:43:58;11.67;;;8.77;;
803;SDS011;25687;49.976;8.240;2022-11-15T08:46:24;10.47;;;9.47;;
803;SDS011;25687;49.976;8.240;2022-11-15T08:48:49;10.97;;;9.87;;
803;SDS011;25687;49.976;8.240;2022-11-15T08:51:15;18.80;;;10.10;;
803;SDS011;25687;49.976;8.240;2022-11-15T08:53:40;15.17;;;10.87;;
803;SDS011;25687;49.976;8.240;2022-11-15T08:56:07;12.47;;;10.00;;
803;SDS011;25687;49.976;8.240;2022-11-15T08:58:34;17.90;;;10.97;;
803;SDS011;25687;49.976;8.240;2022-11-15T09:01:00;13.33;;;9.33;;
803;SDS011;25687;49.976;8.240;2022-11-15T09:03:25;15.80;;;10.00;;
803;SDS011;25687;49.976;8.240;2022-11-15T09:05:54;13.50;;;8.80;;
803;SDS011;25687;49.976;8.240;2022-11-15T09:08:24;14.10;;;9.13;;
803;SDS011;25687;49.976;8.240;2022-11-15T09:10:50;13.67;;;9.00;;
803;SDS011;25687;49.976;8.240;2022-11-15T09:13:16;10.23;;;8.53;;
803;SDS011;25687;49.976;8.240;2022-11-15T09:15:41;9.30;;;8.27;;
803;SDS011;25687;49.976;8.240;2022-11-15T09:18:07;12.67;;;8.13;;
803;SDS011;25687;49.976;8.240;2022-11-15T09:20:32;8.97;;;7.47;;
803;SDS011;25687;49.976;8.240;2022-11-15T09:23:01;10.93;;;8.70;;
803;SDS011;25687;49.976;8.240;2022-11-15T09:25:28;11.43;;;8.00;;
803;SDS011;25687;49.976;8.240;2022-11-15T09:27:54;9.37;;;8.17;;
803;SDS011;25687;49.976;8.240;2022-11-15T09:30:19;9.03;;;8.13;;
803;SDS011;25687;49.976;8.240;2022-11-15T09:32:47;24.80;;;8.10;;
803;SDS011;25687;49.976;8.240;2022-11-15T09:35:12;9.47;;;8.20;;
803;SDS011;25687;49.976;8.240;2022-11-15T09:37:38;8.57;;;7.77;;
803;SDS011;25687;49.976;8.240;2022-11-15T09:40:03;9.53;;;7.17;;
803;SDS011;25687;49.976;8.240;2022-11-15T09:42:33;11.00;;;7.60;;
803;SDS011;25687;49.976;8.240;2022-11-15T09:45:20;10.57;;;9.47;;
803;SDS011;25687;49.976;8.240;2022-11-15T09:50:27;18.57;;;8.37;;
803;SDS011;25687;49.976;8.240;2022-11-15T09:52:58;11.20;;;8.00;;
803;SDS011;25687;49.976;8.240;2022-11-15T09:55:26;10.00;;;7.87;;
803;SDS011;25687;49.976;8.240;2022-11-15T09:58:15;8.17;;;7.23;;
803;SDS011;25687;49.976;8.240;2022-11-15T10:00:51;11.10;;;6.73;;
803;SDS011;25687;49.976;8.240;2022-11-15T10:06:00;8.63;;;7.43;;
803;SDS011;25687;49.976;8.240;2022-11-15T10:11:20;9.27;;;8.23;;
803;SDS011;25687;49.976;8.240;2022-11-15T10:13:49;7.53;;;6.73;;
803;SDS011;25687;49.976;8.240;2022-11-15T10:16:24;7.20;;;6.50;;
803;SDS011;25687;49.976;8.240;2022-11-15T10:22:01;11.20;;;7.20;;
803;SDS011;25687;49.976;8.240;2022-11-15T10:24:30;10.47;;;7.10;;
803;SDS011;25687;49.976;8.240;2022-11-15T10:27:00;8.50;;;6.50;;
803;SDS011;25687;49.976;8.240;2022-11-15T10:29:25;7.70;;;7.00;;
803;SDS011;25687;49.976;8.240;2022-11-15T10:31:51;8.03;;;6.43;;
803;SDS011;25687;49.976;8.240;2022-11-15T10:34:18;7.33;;;6.63;;
803;SDS011;25687;49.976;8.240;2022-11-15T10:36:55;10.83;;;6.80;;
803;SDS011;25687;49.976;8.240;2022-11-15T10:39:26;6.53;;;5.70;;
803;SDS011;25687;49.976;8.240;2022-11-15T10:41:52;8.43;;;7.13;;
803;SDS011;25687;49.976;8.240;2022-11-15T10:44:19;7.87;;;7.03;;
803;SDS011;25687;49.976;8.240;2022-11-15T10:47:04;9.73;;;7.10;;
803;SDS011;25687;49.976;8.240;2022-11-15T10:49:32;7.53;;;6.60;;
803;SDS011;25687;49.976;8.240;2022-11-15T10:54:37;11.47;;;6.53;;
803;SDS011;25687;49.976;8.240;2022-11-15T10:57:10;10.40;;;7.63;;
803;SDS011;25687;49.976;8.240;2022-11-15T10:59:40;7.17;;;6.17;;
803;SDS011;25687;49.976;8.240;2022-11-15T11:04:53;7.17;;;5.27;;
803;SDS011;25687;49.976;8.240;2022-11-15T11:07:26;8.93;;;8.03;;
803;SDS011;25687;49.976;8.240;2022-11-15T11:12:28;8.07;;;6.93;;
803;SDS011;25687;49.976;8.240;2022-11-15T11:14:58;7.13;;;6.33;;
803;SDS011;25687;49.976;8.240;2022-11-15T11:20:37;7.10;;;6.23;;
803;SDS011;25687;49.976;8.240;2022-11-15T11:25:56;7.50;;;6.20;;
803;SDS011;25687;49.976;8.240;2022-11-15T11:34:12;12.07;;;7.07;;
803;SDS011;25687;49.976;8.240;2022-11-15T11:46:03;7.80;;;6.13;;
803;SDS011;25687;49.976;8.240;2022-11-15T11:48:45;9.23;;;6.67;;
803;SDS011;25687;49.976;8.240;2022-11-15T11:51:36;6.30;;;5.70;;
803;SDS011;25687;49.976;8.240;2022-11-15T11:54:05;6.53;;;5.90;;
803;SDS011;25687;49.976;8.240;2022-11-15T11:56:34;8.17;;;6.07;;
803;SDS011;25687;49.976;8.240;2022-11-15T11:59:16;6.20;;;5.13;;
803;SDS011;25687;49.976;8.240;2022-11-15T12:01:50;9.10;;;5.73;;
803;SDS011;25687;49.976;8.240;2022-11-15T12:04:21;8.10;;;5.77;;
803;SDS011;25687;49.976;8.240;2022-11-15T12:07:08;6.60;;;5.90;;
803;SDS011;25687;49.976;8.240;2022-11-15T12:12:25;6.53;;;5.67;;
803;SDS011;25687;49.976;8.240;2022-11-15T12:14:57;6.07;;;5.40;;
803;SDS011;25687;49.976;8.240;2022-11-15T12:17:34;7.63;;;5.73;;
803;SDS011;25687;49.976;8.240;2022-11-15T12:20:04;6.33;;;5.70;;
803;SDS011;25687;49.976;8.240;2022-11-15T12:22:43;6.90;;;5.43;;
803;SDS011;25687;49.976;8.240;2022-11-15T12:25:18;9.67;;;8.67;;
803;SDS011;25687;49.976;8.240;2022-11-15T12:30:52;7.93;;;5.33;;
803;SDS011;25687;49.976;8.240;2022-11-15T12:33:41;6.47;;;5.20;;
803;SDS011;25687;49.976;8.240;2022-11-15T12:41:22;5.27;;;4.77;;
803;SDS011;25687;49.976;8.240;2022-11-15T12:43:51;7.27;;;5.27;;
803;SDS011;25687;49.976;8.240;2022-11-15T12:48:55;6.60;;;4.97;;
803;SDS011;25687;49.976;8.240;2022-11-15T12:52:03;6.63;;;5.70;;
803;SDS011;25687;49.976;8.240;2022-11-15T13:02:36;8.47;;;5.70;;
803;SDS011;25687;49.976;8.240;2022-11-15T13:12:52;8.17;;;5.07;;
803;SDS011;25687;49.976;8.240;2022-11-15T13:17:53;6.93;;;4.90;;
803;SDS011;25687;49.976;8.240;2022-11-15T13:25:18;7.03;;;5.50;;
803;SDS011;25687;49.976;8.240;2022-11-15T13:28:03;4.47;;;4.03;;
803;SDS011;25687;49.976;8.240;2022-11-15T13:30:34;5.67;;;5.03;;
803;SDS011;25687;49.976;8.240;2022-11-15T13:33:07;7.10;;;4.60;;
803;SDS011;25687;49.976;8.240;2022-11-15T13:35:40;6.33;;;4.97;;
803;SDS011;25687;49.976;8.240;2022-11-15T13:38:25;11.40;;;4.97;;
803;SDS011;25687;49.976;8.240;2022-11-15T13:40:53;5.03;;;4.43;;
803;SDS011;25687;49.976;8.240;2022-11-15T13:48:43;5.30;;;4.80;;
803;SDS011;25687;49.976;8.240;2022-11-15T13:51:18;9.27;;;4.77;;
803;SDS011;25687;49.976;8.240;2022-11-15T13:53:49;11.77;;;4.90;;
803;SDS011;25687;49.976;8.240;2022-11-15T13:56:21;8.57;;;4.97;;
803;SDS011;25687;49.976;8.240;2022-11-15T13:58:47;6.50;;;5.47;;
803;SDS011;25687;49.976;8.240;2022-11-15T14:01:17;8.57;;;7.47;;
803;SDS011;25687;49.976;8.240;2022-11-15T14:04:03;10.13;;;7.83;;
803;SDS011;25687;49.976;8.240;2022-11-15T14:06:29;11.23;;;6.97;;
803;SDS011;25687;49.976;8.240;2022-11-15T14:08:59;9.13;;;6.67;;
803;SDS011;25687;49.976;8.240;2022-11-15T14:11:27;12.10;;;7.70;;
803;SDS011;25687;49.976;8.240;2022-11-15T14:14:27;10.43;;;7.03;;
803;SDS011;25687;49.976;8.240;2022-11-15T14:16:49;6.27;;;5.67;;
803;SDS011;25687;49.976;8.240;2022-11-15T14:19:39;6.77;;;6.07;;
803;SDS011;25687;49.976;8.240;2022-11-15T14:25:04;9.10;;;6.90;;
803;SDS011;25687;49.976;8.240;2022-11-15T14:27:38;8.80;;;6.43;;
803;SDS011;25687;49.976;8.240;2022-11-15T14:30:05;9.17;;;7.00;;
803;SDS011;25687;49.976;8.240;2022-11-15T14:35:08;10.00;;;6.90;;
803;SDS011;25687;49.976;8.240;2022-11-15T14:37:38;10.47;;;6.70;;
803;SDS011;25687;49.976;8.240;2022-11-15T14:40:05;9.00;;;5.53;;
803;SDS011;25687;49.976;8.240;2022-11-15T14:42:31;6.77;;;5.60;;
803;SDS011;25687;49.976;8.240;2022-11-15T14:44:56;6.27;;;5.10;;
803;SDS011;25687;49.976;8.240;2022-11-15T14:47:22;5.30;;;4.67;;
803;SDS011;25687;49.976;8.240;2022-11-15T14:49:47;4.53;;;4.13;;
803;SDS011;25687;49.976;8.240;2022-11-15T14:54:50;10.73;;;4.57;;
803;SDS011;25687;49.976;8.240;2022-11-15T14:57:34;6.73;;;4.87;;
803;SDS011;25687;49.976;8.240;2022-11-15T14:59:59;6.47;;;4.40;;
803;SDS011;25687;49.976;8.240;2022-11-15T15:02:25;6.27;;;4.30;;
803;SDS011;25687;49.976;8.240;2022-11-15T15:04:52;5.13;;;4.57;;
803;SDS011;25687;49.976;8.240;2022-11-15T15:07:18;7.60;;;4.67;;
803;SDS011;25687;49.976;8.240;2022-11-15T15:09:44;5.50;;;4.30;;
803;SDS011;25687;49.976;8.240;2022-11-15T15:12:20;5.83;;;4.00;;
803;SDS011;25687;49.976;8.240;2022-11-15T15:14:49;6.40;;;4.87;;
803;SDS011;25687;49.976;8.240;2022-11-15T15:17:15;5.13;;;4.23;;
803;SDS011;25687;49.976;8.240;2022-11-15T15:19:42;5.33;;;4.03;;
803;SDS011;25687;49.976;8.240;2022-11-15T15:22:14;3.63;;;3.27;;
803;SDS011;25687;49.976;8.240;2022-11-15T15:24:42;4.80;;;3.70;;
803;SDS011;25687;49.976;8.240;2022-11-15T15:27:08;5.60;;;4.03;;
803;SDS011;25687;49.976;8.240;2022-11-15T15:29:34;4.57;;;3.53;;
803;SDS011;25687;49.976;8.240;2022-11-15T15:31:59;5.97;;;4.00;;
803;SDS011;25687;49.976;8.240;2022-11-15T15:34:24;5.00;;;3.70;;
803;SDS011;25687;49.976;8.240;2022-11-15T15:37:03;3.73;;;3.33;;
803;SDS011;25687;49.976;8.240;2022-11-15T15:39:31;5.53;;;3.90;;
803;SDS011;25687;49.976;8.240;2022-11-15T15:41:57;4.80;;;3.50;;
803;SDS011;25687;49.976;8.240;2022-11-15T15:44:23;6.87;;;3.63;;
803;SDS011;25687;49.976;8.240;2022-11-15T15:46:48;7.23;;;3.90;;
803;SDS011;25687;49.976;8.240;2022-11-15T15:49:13;3.60;;;3.30;;
803;SDS011;25687;49.976;8.240;2022-11-15T15:51:39;6.10;;;3.77;;
803;SDS011;25687;49.976;8.240;2022-11-15T15:54:04;6.20;;;3.97;;
803;SDS011;25687;49.976;8.240;2022-11-15T15:56:32;4.53;;;3.63;;
803;SDS011;25687;49.976;8.240;2022-11-15T15:58:57;6.27;;;4.07;;
803;SDS011;25687;49.976;8.240;2022-11-15T16:01:22;5.47;;;3.50;;
803;SDS011;25687;49.976;8.240;2022-11-15T16:03:48;6.30;;;3.93;;
803;SDS011;25687;49.976;8.240;2022-11-15T16:08:57;7.37;;;3.97;;
803;SDS011;25687;49.976;8.240;2022-11-15T16:11:22;6.73;;;3.87;;
803;SDS011;25687;49.976;8.240;2022-11-15T16:13:47;4.77;;;4.30;;
803;SDS011;25687;49.976;8.240;2022-11-15T16:16:13;4.80;;;3.70;;
803;SDS011;25687;49.976;8.240;2022-11-15T16:18:38;6.13;;;3.80;;
803;SDS011;25687;49.976;8.240;2022-11-15T16:21:04;7.03;;;3.60;;
803;SDS011;25687;49.976;8.240;2022-11-15T16:23:29;4.63;;;3.67;;
803;SDS011;25687;49.976;8.240;2022-11-15T16:25:55;7.23;;;3.23;;
803;SDS011;25687;49.976;8.240;2022-11-15T16:28:23;4.47;;;3.47;;
803;SDS011;25687;49.976;8.240;2022-11-15T16:30:58;4.90;;;3.63;;
803;SDS011;25687;49.976;8.240;2022-11-15T16:33:28;4.63;;;3.43;;
803;SDS011;25687;49.976;8.240;2022-11-15T16:35:54;5.60;;;3.43;;
803;SDS011;25687;49.976;8.240;2022-11-15T16:38:19;5.10;;;3.60;;
803;SDS011;25687;49.976;8.240;2022-11-15T16:40:46;11.90;;;8.13;;
803;SDS011;25687;49.976;8.240;2022-11-15T16:43:12;4.33;;;3.93;;
803;SDS011;25687;49.976;8.240;2022-11-15T16:45:37;6.60;;;4.20;;
803;SDS011;25687;49.976;8.240;2022-11-15T16:48:03;5.13;;;3.80;;
803;SDS011;25687;49.976;8.240;2022-11-15T16:50:29;6.93;;;3.57;;
803;SDS011;25687;49.976;8.240;2022-11-15T16:52:58;4.93;;;4.37;;
803;SDS011;25687;49.976;8.240;2022-11-15T16:55:25;4.77;;;3.97;;
803;SDS011;25687;49.976;8.240;2022-11-15T16:57:52;8.50;;;6.10;;
803;SDS011;25687;49.976;8.240;2022-11-15T17:00:18;6.57;;;4.17;;
803;SDS011;25687;49.976;8.240;2022-11-15T17:02:45;5.30;;;4.13;;
803;SDS011;25687;49.976;8.240;2022-11-15T17:05:12;4.87;;;4.33;;
803;SDS011;25687;49.976;8.240;2022-11-15T17:07:38;4.87;;;4.20;;
803;SDS011;25687;49.976;8.240;2022-11-15T17:10:04;5.23;;;4.20;;
803;SDS011;25687;49.976;8.240;2022-11-15T17:12:31;4.97;;;3.87;;
803;SDS011;25687;49.976;8.240;2022-11-15T17:15:00;5.70;;;3.93;;
803;SDS011;25687;49.976;8.240;2022-11-15T17:17:28;6.90;;;3.70;;